sensor_id;sensor_type;location;lat;lon;timestamp;P1;durP1;ratioP1;P2;durP2;ratioP2
32292;SDS011;43233;48.608;8.838;2022-08-03T00:01:16;3.30;;;3.10;;
32292;SDS011;43233;48.608;8.838;2022-08-03T00:03:42;5.53;;;3.20;;
32292;SDS011;43233;48.608;8.838;2022-08-03T00:06:08;4.80;;;2.87;;
32292;SDS011;43233;48.608;8.838;2022-08-03T00:08:33;3.67;;;3.33;;
32292;SDS011;43233;48.608;8.838;2022-08-03T00:10:59;3.97;;;3.53;;
32292;SDS011;43233;48.608;8.838;2022-08-03T00:13:25;2.80;;;2.30;;
32292;SDS011;43233;48.608;8.838;2022-08-03T00:15:51;2.90;;;2.70;;
32292;SDS011;43233;48.608;8.838;2022-08-03T00:18:18;3.27;;;2.93;;
32292;SDS011;43233;48.608;8.838;2022-08-03T00:20:44;3.27;;;3.07;;
32292;SDS011;43233;48.608;8.838;2022-08-03T00:23:10;3.77;;;3.47;;
32292;SDS011;43233;48.608;8.838;2022-08-03T00:25:36;3.60;;;3.30;;
32292;SDS011;43233;48.608;8.838;2022-08-03T00:28:02;5.93;;;3.20;;
32292;SDS011;43233;48.608;8.838;2022-08-03T00:30:29;3.57;;;3.23;;
32292;SDS011;43233;48.608;8.838;2022-08-03T00:32:55;6.60;;;3.37;;
32292;SDS011;43233;48.608;8.838;2022-08-03T00:35:21;3.73;;;3.43;;
32292;SDS011;43233;48.608;8.838;2022-08-03T00:37:47;4.30;;;3.97;;
32292;SDS011;43233;48.608;8.838;2022-08-03T00:40:13;3.90;;;3.63;;
32292;SDS011;43233;48.608;8.838;2022-08-03T00:45:19;4.00;;;3.60;;
32292;SDS011;43233;48.608;8.838;2022-08-03T00:47:46;3.87;;;3.63;;
32292;SDS011;43233;48.608;8.838;2022-08-03T00:50:12;4.20;;;3.80;;
32292;SDS011;43233;48.608;8.838;2022-08-03T00:52:38;4.20;;;3.80;;
32292;SDS011;43233;48.608;8.838;2022-08-03T00:55:04;3.53;;;3.33;;
32292;SDS011;43233;48.608;8.838;2022-08-03T00:57:30;6.20;;;4.07;;
32292;SDS011;43233;48.608;8.838;2022-08-03T00:59:57;4.43;;;3.43;;
32292;SDS011;43233;48.608;8.838;2022-08-03T01:02:24;4.30;;;4.00;;
32292;SDS011;43233;48.608;8.838;2022-08-03T01:04:50;6.83;;;4.17;;
32292;SDS011;43233;48.608;8.838;2022-08-03T01:07:20;4.57;;;4.17;;
32292;SDS011;43233;48.608;8.838;2022-08-03T01:12:39;4.30;;;4.00;;
32292;SDS011;43233;48.608;8.838;2022-08-03T01:17:50;5.00;;;4.60;;
32292;SDS011;43233;48.608;8.838;2022-08-03T01:20:21;4.60;;;4.20;;
32292;SDS011;43233;48.608;8.838;2022-08-03T01:25:27;4.40;;;4.00;;
32292;SDS011;43233;48.608;8.838;2022-08-03T01:28:18;5.33;;;3.73;;
32292;SDS011;43233;48.608;8.838;2022-08-03T01:31:09;9.10;;;4.20;;
32292;SDS011;43233;48.608;8.838;2022-08-03T01:33:41;4.40;;;4.07;;
32292;SDS011;43233;48.608;8.838;2022-08-03T01:36:15;3.80;;;3.50;;
32292;SDS011;43233;48.608;8.838;2022-08-03T01:38:47;4.07;;;3.77;;
32292;SDS011;43233;48.608;8.838;2022-08-03T01:41:20;8.43;;;4.83;;
32292;SDS011;43233;48.608;8.838;2022-08-03T01:43:49;4.40;;;3.90;;
32292;SDS011;43233;48.608;8.838;2022-08-03T01:46:17;4.70;;;4.30;;
32292;SDS011;43233;48.608;8.838;2022-08-03T01:48:46;4.90;;;4.20;;
32292;SDS011;43233;48.608;8.838;2022-08-03T01:51:13;4.53;;;4.13;;
32292;SDS011;43233;48.608;8.838;2022-08-03T01:53:42;5.10;;;3.97;;
32292;SDS011;43233;48.608;8.838;2022-08-03T01:56:08;5.03;;;4.53;;
32292;SDS011;43233;48.608;8.838;2022-08-03T01:58:35;4.70;;;4.30;;
32292;SDS011;43233;48.608;8.838;2022-08-03T02:01:03;4.17;;;3.87;;
32292;SDS011;43233;48.608;8.838;2022-08-03T02:03:30;4.77;;;4.33;;
32292;SDS011;43233;48.608;8.838;2022-08-03T02:06:00;4.93;;;4.13;;
32292;SDS011;43233;48.608;8.838;2022-08-03T02:08:27;4.07;;;3.77;;
32292;SDS011;43233;48.608;8.838;2022-08-03T02:10:55;5.03;;;4.10;;
32292;SDS011;43233;48.608;8.838;2022-08-03T02:13:23;4.30;;;4.00;;
32292;SDS011;43233;48.608;8.838;2022-08-03T02:15:50;4.20;;;3.90;;
32292;SDS011;43233;48.608;8.838;2022-08-03T02:18:17;4.13;;;3.83;;
32292;SDS011;43233;48.608;8.838;2022-08-03T02:20:44;4.17;;;3.80;;
32292;SDS011;43233;48.608;8.838;2022-08-03T02:23:11;4.13;;;3.73;;
32292;SDS011;43233;48.608;8.838;2022-08-03T02:25:53;4.57;;;4.17;;
32292;SDS011;43233;48.608;8.838;2022-08-03T02:28:25;4.30;;;3.90;;
32292;SDS011;43233;48.608;8.838;2022-08-03T02:30:55;5.50;;;4.20;;
32292;SDS011;43233;48.608;8.838;2022-08-03T02:33:41;4.17;;;3.87;;
32292;SDS011;43233;48.608;8.838;2022-08-03T02:36:11;4.33;;;3.93;;
32292;SDS011;43233;48.608;8.838;2022-08-03T02:38:40;4.80;;;4.37;;
32292;SDS011;43233;48.608;8.838;2022-08-03T02:41:08;4.30;;;3.80;;
32292;SDS011;43233;48.608;8.838;2022-08-03T02:43:40;5.00;;;4.57;;
32292;SDS011;43233;48.608;8.838;2022-08-03T02:46:09;6.23;;;4.03;;
32292;SDS011;43233;48.608;8.838;2022-08-03T02:48:38;4.97;;;4.57;;
32292;SDS011;43233;48.608;8.838;2022-08-03T02:51:07;7.80;;;4.60;;
32292;SDS011;43233;48.608;8.838;2022-08-03T02:53:33;6.33;;;3.90;;
32292;SDS011;43233;48.608;8.838;2022-08-03T02:56:00;4.83;;;4.33;;
32292;SDS011;43233;48.608;8.838;2022-08-03T02:58:28;4.47;;;4.17;;
32292;SDS011;43233;48.608;8.838;2022-08-03T03:00:55;11.13;;;4.23;;
32292;SDS011;43233;48.608;8.838;2022-08-03T03:03:22;4.63;;;4.20;;
32292;SDS011;43233;48.608;8.838;2022-08-03T03:05:48;4.83;;;4.43;;
32292;SDS011;43233;48.608;8.838;2022-08-03T03:08:15;4.93;;;4.53;;
32292;SDS011;43233;48.608;8.838;2022-08-03T03:10:43;3.83;;;3.57;;
32292;SDS011;43233;48.608;8.838;2022-08-03T03:13:10;4.60;;;4.20;;
32292;SDS011;43233;48.608;8.838;2022-08-03T03:15:37;4.50;;;4.07;;
32292;SDS011;43233;48.608;8.838;2022-08-03T03:18:05;4.20;;;3.90;;
32292;SDS011;43233;48.608;8.838;2022-08-03T03:20:34;4.27;;;3.97;;
32292;SDS011;43233;48.608;8.838;2022-08-03T03:23:02;5.27;;;4.77;;
32292;SDS011;43233;48.608;8.838;2022-08-03T03:25:32;4.57;;;4.17;;
32292;SDS011;43233;48.608;8.838;2022-08-03T03:27:58;5.83;;;4.70;;
32292;SDS011;43233;48.608;8.838;2022-08-03T03:30:25;6.83;;;4.43;;
32292;SDS011;43233;48.608;8.838;2022-08-03T03:32:51;4.40;;;4.00;;
32292;SDS011;43233;48.608;8.838;2022-08-03T03:35:17;4.43;;;4.03;;
32292;SDS011;43233;48.608;8.838;2022-08-03T03:37:43;4.67;;;4.37;;
32292;SDS011;43233;48.608;8.838;2022-08-03T03:40:09;7.27;;;4.93;;
32292;SDS011;43233;48.608;8.838;2022-08-03T03:42:35;4.70;;;4.40;;
32292;SDS011;43233;48.608;8.838;2022-08-03T03:45:02;4.83;;;4.33;;
32292;SDS011;43233;48.608;8.838;2022-08-03T03:47:29;5.40;;;4.37;;
32292;SDS011;43233;48.608;8.838;2022-08-03T03:49:56;3.90;;;3.60;;
32292;SDS011;43233;48.608;8.838;2022-08-03T03:52:22;6.70;;;5.00;;
32292;SDS011;43233;48.608;8.838;2022-08-03T03:54:47;5.00;;;4.60;;
32292;SDS011;43233;48.608;8.838;2022-08-03T03:57:13;4.70;;;4.23;;
32292;SDS011;43233;48.608;8.838;2022-08-03T03:59:39;6.73;;;4.00;;
32292;SDS011;43233;48.608;8.838;2022-08-03T04:02:06;4.20;;;3.90;;
32292;SDS011;43233;48.608;8.838;2022-08-03T04:04:33;7.33;;;4.40;;
32292;SDS011;43233;48.608;8.838;2022-08-03T04:07:23;11.60;;;4.40;;
32292;SDS011;43233;48.608;8.838;2022-08-03T04:10:12;4.40;;;4.00;;
32292;SDS011;43233;48.608;8.838;2022-08-03T04:13:01;5.17;;;4.77;;
32292;SDS011;43233;48.608;8.838;2022-08-03T04:15:31;5.13;;;4.30;;
32292;SDS011;43233;48.608;8.838;2022-08-03T04:17:58;5.20;;;4.20;;
32292;SDS011;43233;48.608;8.838;2022-08-03T04:20:27;4.77;;;4.30;;
32292;SDS011;43233;48.608;8.838;2022-08-03T04:22:56;3.90;;;3.60;;
32292;SDS011;43233;48.608;8.838;2022-08-03T04:25:27;4.30;;;3.90;;
32292;SDS011;43233;48.608;8.838;2022-08-03T04:27:57;3.97;;;3.70;;
32292;SDS011;43233;48.608;8.838;2022-08-03T04:30:28;4.43;;;4.03;;
32292;SDS011;43233;48.608;8.838;2022-08-03T04:32:57;4.43;;;4.03;;
32292;SDS011;43233;48.608;8.838;2022-08-03T04:35:27;3.87;;;3.43;;
32292;SDS011;43233;48.608;8.838;2022-08-03T04:37:56;4.40;;;4.00;;
32292;SDS011;43233;48.608;8.838;2022-08-03T04:40:32;6.97;;;4.10;;
32292;SDS011;43233;48.608;8.838;2022-08-03T04:42:58;3.67;;;3.47;;
32292;SDS011;43233;48.608;8.838;2022-08-03T04:45:26;4.20;;;3.90;;
32292;SDS011;43233;48.608;8.838;2022-08-03T04:47:53;4.60;;;4.20;;
32292;SDS011;43233;48.608;8.838;2022-08-03T04:50:19;4.20;;;3.90;;
32292;SDS011;43233;48.608;8.838;2022-08-03T04:52:46;7.80;;;4.10;;
32292;SDS011;43233;48.608;8.838;2022-08-03T04:55:24;4.67;;;4.17;;
32292;SDS011;43233;48.608;8.838;2022-08-03T04:57:57;3.83;;;3.53;;
32292;SDS011;43233;48.608;8.838;2022-08-03T05:00:23;5.50;;;5.00;;
32292;SDS011;43233;48.608;8.838;2022-08-03T05:02:49;5.53;;;4.93;;
32292;SDS011;43233;48.608;8.838;2022-08-03T05:05:15;8.80;;;4.30;;
32292;SDS011;43233;48.608;8.838;2022-08-03T05:07:41;4.87;;;4.50;;
32292;SDS011;43233;48.608;8.838;2022-08-03T05:10:09;3.73;;;3.40;;
32292;SDS011;43233;48.608;8.838;2022-08-03T05:12:35;5.30;;;3.87;;
32292;SDS011;43233;48.608;8.838;2022-08-03T05:15:01;4.50;;;4.10;;
32292;SDS011;43233;48.608;8.838;2022-08-03T05:17:27;4.00;;;3.70;;
32292;SDS011;43233;48.608;8.838;2022-08-03T05:19:53;4.23;;;3.63;;
32292;SDS011;43233;48.608;8.838;2022-08-03T05:22:22;5.97;;;4.10;;
32292;SDS011;43233;48.608;8.838;2022-08-03T05:24:47;4.33;;;3.93;;
32292;SDS011;43233;48.608;8.838;2022-08-03T05:27:13;3.80;;;3.50;;
32292;SDS011;43233;48.608;8.838;2022-08-03T05:29:46;3.90;;;3.60;;
32292;SDS011;43233;48.608;8.838;2022-08-03T05:32:13;3.60;;;3.40;;
32292;SDS011;43233;48.608;8.838;2022-08-03T05:34:39;4.30;;;3.90;;
32292;SDS011;43233;48.608;8.838;2022-08-03T05:37:05;7.40;;;3.60;;
32292;SDS011;43233;48.608;8.838;2022-08-03T05:39:34;4.00;;;3.70;;
32292;SDS011;43233;48.608;8.838;2022-08-03T05:41:59;3.50;;;3.27;;
32292;SDS011;43233;48.608;8.838;2022-08-03T05:44:26;3.97;;;3.60;;
32292;SDS011;43233;48.608;8.838;2022-08-03T05:46:51;3.43;;;3.23;;
32292;SDS011;43233;48.608;8.838;2022-08-03T05:49:17;3.80;;;3.50;;
32292;SDS011;43233;48.608;8.838;2022-08-03T05:51:43;4.60;;;3.43;;
32292;SDS011;43233;48.608;8.838;2022-08-03T05:54:09;3.97;;;3.67;;
32292;SDS011;43233;48.608;8.838;2022-08-03T05:56:35;5.60;;;4.07;;
32292;SDS011;43233;48.608;8.838;2022-08-03T05:59:01;5.90;;;5.40;;
32292;SDS011;43233;48.608;8.838;2022-08-03T06:01:27;6.10;;;5.50;;
32292;SDS011;43233;48.608;8.838;2022-08-03T06:03:53;5.63;;;5.13;;
32292;SDS011;43233;48.608;8.838;2022-08-03T06:06:18;4.97;;;4.20;;
32292;SDS011;43233;48.608;8.838;2022-08-03T06:08:44;6.13;;;5.53;;
32292;SDS011;43233;48.608;8.838;2022-08-03T06:11:10;5.43;;;5.03;;
32292;SDS011;43233;48.608;8.838;2022-08-03T06:13:37;6.00;;;4.40;;
32292;SDS011;43233;48.608;8.838;2022-08-03T06:16:03;4.93;;;4.43;;
32292;SDS011;43233;48.608;8.838;2022-08-03T06:18:30;4.90;;;4.40;;
32292;SDS011;43233;48.608;8.838;2022-08-03T06:20:55;5.97;;;4.17;;
32292;SDS011;43233;48.608;8.838;2022-08-03T06:23:21;4.50;;;4.10;;
32292;SDS011;43233;48.608;8.838;2022-08-03T06:25:47;5.00;;;4.60;;
32292;SDS011;43233;48.608;8.838;2022-08-03T06:28:12;4.87;;;4.37;;
32292;SDS011;43233;48.608;8.838;2022-08-03T06:30:38;8.30;;;3.87;;
32292;SDS011;43233;48.608;8.838;2022-08-03T06:33:04;5.17;;;4.67;;
32292;SDS011;43233;48.608;8.838;2022-08-03T06:35:30;4.13;;;3.83;;
32292;SDS011;43233;48.608;8.838;2022-08-03T06:37:56;5.43;;;4.93;;
32292;SDS011;43233;48.608;8.838;2022-08-03T06:40:22;4.57;;;4.17;;
32292;SDS011;43233;48.608;8.838;2022-08-03T06:42:58;5.70;;;5.17;;
32292;SDS011;43233;48.608;8.838;2022-08-03T06:45:25;5.90;;;5.40;;
32292;SDS011;43233;48.608;8.838;2022-08-03T06:48:00;7.30;;;6.60;;
32292;SDS011;43233;48.608;8.838;2022-08-03T06:50:26;6.67;;;5.80;;
32292;SDS011;43233;48.608;8.838;2022-08-03T06:52:52;7.50;;;5.57;;
32292;SDS011;43233;48.608;8.838;2022-08-03T06:55:18;6.30;;;5.80;;
32292;SDS011;43233;48.608;8.838;2022-08-03T06:57:43;5.43;;;4.93;;
32292;SDS011;43233;48.608;8.838;2022-08-03T07:00:09;4.50;;;4.10;;
32292;SDS011;43233;48.608;8.838;2022-08-03T07:02:36;5.77;;;4.50;;
32292;SDS011;43233;48.608;8.838;2022-08-03T07:05:02;4.07;;;3.67;;
32292;SDS011;43233;48.608;8.838;2022-08-03T07:07:28;4.13;;;3.83;;
32292;SDS011;43233;48.608;8.838;2022-08-03T07:09:54;5.20;;;4.70;;
32292;SDS011;43233;48.608;8.838;2022-08-03T07:12:19;5.50;;;5.10;;
32292;SDS011;43233;48.608;8.838;2022-08-03T07:14:45;4.77;;;4.37;;
32292;SDS011;43233;48.608;8.838;2022-08-03T07:17:11;5.17;;;4.67;;
32292;SDS011;43233;48.608;8.838;2022-08-03T07:19:36;4.97;;;4.43;;
32292;SDS011;43233;48.608;8.838;2022-08-03T07:22:02;4.47;;;3.93;;
32292;SDS011;43233;48.608;8.838;2022-08-03T07:24:28;4.40;;;4.10;;
32292;SDS011;43233;48.608;8.838;2022-08-03T07:26:53;4.90;;;4.50;;
32292;SDS011;43233;48.608;8.838;2022-08-03T07:29:19;5.90;;;4.70;;
32292;SDS011;43233;48.608;8.838;2022-08-03T07:31:45;4.77;;;3.30;;
32292;SDS011;43233;48.608;8.838;2022-08-03T07:34:11;5.47;;;4.13;;
32292;SDS011;43233;48.608;8.838;2022-08-03T07:36:36;3.90;;;3.60;;
32292;SDS011;43233;48.608;8.838;2022-08-03T07:39:02;3.80;;;3.47;;
32292;SDS011;43233;48.608;8.838;2022-08-03T07:41:28;4.07;;;3.67;;
32292;SDS011;43233;48.608;8.838;2022-08-03T07:43:54;3.53;;;3.23;;
32292;SDS011;43233;48.608;8.838;2022-08-03T07:46:19;3.37;;;3.07;;
32292;SDS011;43233;48.608;8.838;2022-08-03T07:48:45;3.20;;;3.00;;
32292;SDS011;43233;48.608;8.838;2022-08-03T07:51:11;4.33;;;3.80;;
32292;SDS011;43233;48.608;8.838;2022-08-03T07:53:36;3.20;;;3.00;;
32292;SDS011;43233;48.608;8.838;2022-08-03T07:56:02;2.73;;;2.53;;
32292;SDS011;43233;48.608;8.838;2022-08-03T07:58:28;2.57;;;2.37;;
32292;SDS011;43233;48.608;8.838;2022-08-03T08:00:53;2.77;;;2.60;;
32292;SDS011;43233;48.608;8.838;2022-08-03T08:03:19;2.93;;;2.63;;
32292;SDS011;43233;48.608;8.838;2022-08-03T08:05:46;2.47;;;2.00;;
32292;SDS011;43233;48.608;8.838;2022-08-03T08:08:12;2.20;;;2.10;;
32292;SDS011;43233;48.608;8.838;2022-08-03T08:10:37;1.87;;;1.77;;
32292;SDS011;43233;48.608;8.838;2022-08-03T08:13:03;1.80;;;1.70;;
32292;SDS011;43233;48.608;8.838;2022-08-03T08:15:29;1.80;;;1.70;;
32292;SDS011;43233;48.608;8.838;2022-08-03T08:17:56;3.37;;;2.10;;
32292;SDS011;43233;48.608;8.838;2022-08-03T08:20:24;2.40;;;2.20;;
32292;SDS011;43233;48.608;8.838;2022-08-03T08:22:51;2.90;;;2.10;;
32292;SDS011;43233;48.608;8.838;2022-08-03T08:25:19;5.43;;;2.00;;
32292;SDS011;43233;48.608;8.838;2022-08-03T08:27:45;2.10;;;2.00;;
32292;SDS011;43233;48.608;8.838;2022-08-03T08:30:13;2.00;;;1.87;;
32292;SDS011;43233;48.608;8.838;2022-08-03T08:32:40;2.30;;;1.87;;
32292;SDS011;43233;48.608;8.838;2022-08-03T08:35:07;2.03;;;1.60;;
32292;SDS011;43233;48.608;8.838;2022-08-03T08:37:33;1.57;;;1.47;;
32292;SDS011;43233;48.608;8.838;2022-08-03T08:39:59;1.67;;;1.57;;
32292;SDS011;43233;48.608;8.838;2022-08-03T08:42:25;2.20;;;1.40;;
32292;SDS011;43233;48.608;8.838;2022-08-03T08:44:51;1.63;;;1.53;;
32292;SDS011;43233;48.608;8.838;2022-08-03T08:47:20;1.87;;;1.77;;
32292;SDS011;43233;48.608;8.838;2022-08-03T08:49:52;1.77;;;1.67;;
32292;SDS011;43233;48.608;8.838;2022-08-03T08:52:23;1.70;;;1.60;;
32292;SDS011;43233;48.608;8.838;2022-08-03T08:54:49;1.40;;;1.30;;
32292;SDS011;43233;48.608;8.838;2022-08-03T08:57:19;2.90;;;1.33;;
32292;SDS011;43233;48.608;8.838;2022-08-03T08:59:47;1.50;;;1.40;;
32292;SDS011;43233;48.608;8.838;2022-08-03T09:02:12;1.70;;;1.60;;
32292;SDS011;43233;48.608;8.838;2022-08-03T09:04:38;1.40;;;1.30;;
32292;SDS011;43233;48.608;8.838;2022-08-03T09:07:04;1.27;;;1.23;;
32292;SDS011;43233;48.608;8.838;2022-08-03T09:09:31;3.03;;;1.83;;
32292;SDS011;43233;48.608;8.838;2022-08-03T09:11:57;1.47;;;1.37;;
32292;SDS011;43233;48.608;8.838;2022-08-03T09:14:23;1.70;;;1.60;;
32292;SDS011;43233;48.608;8.838;2022-08-03T09:16:58;2.27;;;1.70;;
32292;SDS011;43233;48.608;8.838;2022-08-03T09:19:29;1.50;;;1.40;;
32292;SDS011;43233;48.608;8.838;2022-08-03T09:22:15;2.67;;;1.70;;
32292;SDS011;43233;48.608;8.838;2022-08-03T09:24:58;6.20;;;1.50;;
32292;SDS011;43233;48.608;8.838;2022-08-03T09:27:25;1.67;;;1.57;;
32292;SDS011;43233;48.608;8.838;2022-08-03T09:29:53;1.60;;;1.50;;
32292;SDS011;43233;48.608;8.838;2022-08-03T09:32:22;1.67;;;1.57;;
32292;SDS011;43233;48.608;8.838;2022-08-03T09:34:49;2.27;;;1.37;;
32292;SDS011;43233;48.608;8.838;2022-08-03T09:37:17;1.77;;;1.67;;
32292;SDS011;43233;48.608;8.838;2022-08-03T09:39:47;1.50;;;1.40;;
32292;SDS011;43233;48.608;8.838;2022-08-03T09:42:13;1.83;;;1.73;;
32292;SDS011;43233;48.608;8.838;2022-08-03T09:44:47;1.53;;;1.43;;
32292;SDS011;43233;48.608;8.838;2022-08-03T09:47:28;1.50;;;1.40;;
32292;SDS011;43233;48.608;8.838;2022-08-03T09:50:03;1.90;;;1.80;;
32292;SDS011;43233;48.608;8.838;2022-08-03T09:52:34;2.43;;;1.70;;
32292;SDS011;43233;48.608;8.838;2022-08-03T09:55:02;1.50;;;1.40;;
32292;SDS011;43233;48.608;8.838;2022-08-03T09:57:33;1.70;;;1.60;;
32292;SDS011;43233;48.608;8.838;2022-08-03T10:00:06;1.90;;;1.80;;
32292;SDS011;43233;48.608;8.838;2022-08-03T10:02:35;1.60;;;1.50;;
32292;SDS011;43233;48.608;8.838;2022-08-03T10:05:02;1.40;;;1.40;;
32292;SDS011;43233;48.608;8.838;2022-08-03T10:07:29;2.40;;;1.00;;
32292;SDS011;43233;48.608;8.838;2022-08-03T10:09:58;1.40;;;1.27;;
32292;SDS011;43233;48.608;8.838;2022-08-03T10:12:26;1.50;;;1.40;;
32292;SDS011;43233;48.608;8.838;2022-08-03T10:14:52;1.30;;;1.30;;
32292;SDS011;43233;48.608;8.838;2022-08-03T10:17:19;1.20;;;1.20;;
32292;SDS011;43233;48.608;8.838;2022-08-03T10:19:45;1.40;;;1.30;;
32292;SDS011;43233;48.608;8.838;2022-08-03T10:24:45;1.77;;;1.60;;
32292;SDS011;43233;48.608;8.838;2022-08-03T10:27:23;1.50;;;1.50;;
32292;SDS011;43233;48.608;8.838;2022-08-03T10:29:52;1.50;;;1.47;;
32292;SDS011;43233;48.608;8.838;2022-08-03T10:32:30;1.60;;;1.50;;
32292;SDS011;43233;48.608;8.838;2022-08-03T10:35:06;1.50;;;1.40;;
32292;SDS011;43233;48.608;8.838;2022-08-03T10:37:43;1.63;;;1.53;;
32292;SDS011;43233;48.608;8.838;2022-08-03T10:40:16;1.60;;;1.50;;
32292;SDS011;43233;48.608;8.838;2022-08-03T10:42:45;10.10;;;1.70;;
32292;SDS011;43233;48.608;8.838;2022-08-03T10:45:20;1.60;;;1.50;;
32292;SDS011;43233;48.608;8.838;2022-08-03T10:47:51;2.60;;;1.57;;
32292;SDS011;43233;48.608;8.838;2022-08-03T10:50:19;1.80;;;1.70;;
32292;SDS011;43233;48.608;8.838;2022-08-03T10:52:55;1.87;;;1.77;;
32292;SDS011;43233;48.608;8.838;2022-08-03T10:55:31;3.53;;;1.90;;
32292;SDS011;43233;48.608;8.838;2022-08-03T10:58:53;2.73;;;1.60;;
32292;SDS011;43233;48.608;8.838;2022-08-03T11:01:16;3.33;;;1.87;;
32292;SDS011;43233;48.608;8.838;2022-08-03T11:06:21;2.20;;;1.90;;
32292;SDS011;43233;48.608;8.838;2022-08-03T11:11:38;1.90;;;1.60;;
32292;SDS011;43233;48.608;8.838;2022-08-03T11:16:48;1.97;;;1.60;;
32292;SDS011;43233;48.608;8.838;2022-08-03T11:19:41;2.93;;;1.63;;
32292;SDS011;43233;48.608;8.838;2022-08-03T11:22:09;1.73;;;1.63;;
32292;SDS011;43233;48.608;8.838;2022-08-03T11:29:52;1.80;;;1.70;;
32292;SDS011;43233;48.608;8.838;2022-08-03T11:40:37;4.70;;;1.97;;
32292;SDS011;43233;48.608;8.838;2022-08-03T11:45:59;4.70;;;1.73;;
32292;SDS011;43233;48.608;8.838;2022-08-03T11:48:33;2.93;;;1.63;;
32292;SDS011;43233;48.608;8.838;2022-08-03T11:51:19;2.60;;;1.70;;
32292;SDS011;43233;48.608;8.838;2022-08-03T11:53:50;1.70;;;1.60;;
32292;SDS011;43233;48.608;8.838;2022-08-03T11:56:43;2.90;;;1.90;;
32292;SDS011;43233;48.608;8.838;2022-08-03T11:59:13;1.60;;;1.50;;
32292;SDS011;43233;48.608;8.838;2022-08-03T12:01:39;1.50;;;1.50;;
32292;SDS011;43233;48.608;8.838;2022-08-03T12:04:04;1.43;;;1.40;;
32292;SDS011;43233;48.608;8.838;2022-08-03T12:06:31;1.80;;;1.70;;
32292;SDS011;43233;48.608;8.838;2022-08-03T12:09:18;1.50;;;1.40;;
32292;SDS011;43233;48.608;8.838;2022-08-03T12:11:50;1.50;;;1.40;;
32292;SDS011;43233;48.608;8.838;2022-08-03T12:14:17;5.60;;;1.27;;
32292;SDS011;43233;48.608;8.838;2022-08-03T12:16:47;2.30;;;2.13;;
32292;SDS011;43233;48.608;8.838;2022-08-03T12:19:13;1.70;;;1.60;;
32292;SDS011;43233;48.608;8.838;2022-08-03T12:21:46;2.70;;;1.80;;
32292;SDS011;43233;48.608;8.838;2022-08-03T12:24:13;1.80;;;1.70;;
32292;SDS011;43233;48.608;8.838;2022-08-03T12:26:43;1.47;;;1.43;;
32292;SDS011;43233;48.608;8.838;2022-08-03T12:29:16;1.93;;;1.50;;
32292;SDS011;43233;48.608;8.838;2022-08-03T12:31:43;7.40;;;1.60;;
32292;SDS011;43233;48.608;8.838;2022-08-03T12:34:08;1.50;;;1.40;;
32292;SDS011;43233;48.608;8.838;2022-08-03T12:36:35;1.70;;;1.60;;
32292;SDS011;43233;48.608;8.838;2022-08-03T12:39:06;2.10;;;1.80;;
32292;SDS011;43233;48.608;8.838;2022-08-03T12:41:37;1.67;;;1.53;;
32292;SDS011;43233;48.608;8.838;2022-08-03T12:44:05;1.73;;;1.37;;
32292;SDS011;43233;48.608;8.838;2022-08-03T12:46:39;1.73;;;1.60;;
32292;SDS011;43233;48.608;8.838;2022-08-03T12:49:07;1.90;;;1.80;;
32292;SDS011;43233;48.608;8.838;2022-08-03T12:54:08;1.40;;;1.30;;
32292;SDS011;43233;48.608;8.838;2022-08-03T12:59:39;1.50;;;1.40;;
32292;SDS011;43233;48.608;8.838;2022-08-03T13:02:16;1.57;;;1.47;;
32292;SDS011;43233;48.608;8.838;2022-08-03T13:04:43;1.50;;;1.40;;
32292;SDS011;43233;48.608;8.838;2022-08-03T13:07:10;2.50;;;1.30;;
32292;SDS011;43233;48.608;8.838;2022-08-03T13:09:43;4.87;;;1.77;;
32292;SDS011;43233;48.608;8.838;2022-08-03T13:12:13;1.60;;;1.50;;
32292;SDS011;43233;48.608;8.838;2022-08-03T13:14:39;1.37;;;1.27;;
32292;SDS011;43233;48.608;8.838;2022-08-03T13:17:05;1.40;;;1.30;;
32292;SDS011;43233;48.608;8.838;2022-08-03T13:19:32;1.60;;;1.50;;
32292;SDS011;43233;48.608;8.838;2022-08-03T13:21:58;2.03;;;1.50;;
32292;SDS011;43233;48.608;8.838;2022-08-03T13:24:25;1.50;;;1.40;;
32292;SDS011;43233;48.608;8.838;2022-08-03T13:26:51;1.43;;;1.33;;
32292;SDS011;43233;48.608;8.838;2022-08-03T13:29:16;1.60;;;1.50;;
32292;SDS011;43233;48.608;8.838;2022-08-03T13:31:42;1.60;;;1.50;;
32292;SDS011;43233;48.608;8.838;2022-08-03T13:34:08;2.53;;;1.70;;
32292;SDS011;43233;48.608;8.838;2022-08-03T13:36:34;3.53;;;1.50;;
32292;SDS011;43233;48.608;8.838;2022-08-03T13:38:59;1.70;;;1.60;;
32292;SDS011;43233;48.608;8.838;2022-08-03T13:41:25;1.83;;;1.33;;
32292;SDS011;43233;48.608;8.838;2022-08-03T13:43:51;1.20;;;1.20;;
32292;SDS011;43233;48.608;8.838;2022-08-03T13:46:17;1.67;;;1.57;;
32292;SDS011;43233;48.608;8.838;2022-08-03T13:48:44;2.87;;;1.40;;
32292;SDS011;43233;48.608;8.838;2022-08-03T13:51:09;2.00;;;1.70;;
32292;SDS011;43233;48.608;8.838;2022-08-03T13:53:35;1.73;;;1.40;;
32292;SDS011;43233;48.608;8.838;2022-08-03T13:56:00;6.13;;;1.50;;
32292;SDS011;43233;48.608;8.838;2022-08-03T13:58:26;1.20;;;1.20;;
32292;SDS011;43233;48.608;8.838;2022-08-03T14:00:52;2.57;;;1.40;;
32292;SDS011;43233;48.608;8.838;2022-08-03T14:03:17;1.40;;;1.30;;
32292;SDS011;43233;48.608;8.838;2022-08-03T14:05:43;1.43;;;1.33;;
32292;SDS011;43233;48.608;8.838;2022-08-03T14:08:09;1.40;;;1.30;;
32292;SDS011;43233;48.608;8.838;2022-08-03T14:10:36;3.20;;;1.30;;
32292;SDS011;43233;48.608;8.838;2022-08-03T14:13:04;1.00;;;1.00;;
32292;SDS011;43233;48.608;8.838;2022-08-03T14:15:30;1.67;;;1.57;;
32292;SDS011;43233;48.608;8.838;2022-08-03T14:17:56;1.60;;;1.50;;
32292;SDS011;43233;48.608;8.838;2022-08-03T14:20:22;2.40;;;1.40;;
32292;SDS011;43233;48.608;8.838;2022-08-03T14:22:47;1.50;;;1.40;;
32292;SDS011;43233;48.608;8.838;2022-08-03T14:25:13;1.77;;;1.67;;
32292;SDS011;43233;48.608;8.838;2022-08-03T14:27:39;2.03;;;1.30;;
32292;SDS011;43233;48.608;8.838;2022-08-03T14:30:05;1.63;;;1.53;;
32292;SDS011;43233;48.608;8.838;2022-08-03T14:32:30;1.80;;;1.57;;
32292;SDS011;43233;48.608;8.838;2022-08-03T14:34:56;1.53;;;1.43;;
32292;SDS011;43233;48.608;8.838;2022-08-03T14:37:22;1.57;;;1.50;;
32292;SDS011;43233;48.608;8.838;2022-08-03T14:39:47;1.50;;;1.40;;
32292;SDS011;43233;48.608;8.838;2022-08-03T14:42:13;1.60;;;1.50;;
32292;SDS011;43233;48.608;8.838;2022-08-03T14:44:39;1.50;;;1.40;;
32292;SDS011;43233;48.608;8.838;2022-08-03T14:47:05;1.67;;;1.50;;
32292;SDS011;43233;48.608;8.838;2022-08-03T14:49:31;2.37;;;1.53;;
32292;SDS011;43233;48.608;8.838;2022-08-03T14:51:56;1.50;;;1.30;;
32292;SDS011;43233;48.608;8.838;2022-08-03T14:54:23;1.97;;;1.77;;
32292;SDS011;43233;48.608;8.838;2022-08-03T14:56:49;1.30;;;1.20;;
32292;SDS011;43233;48.608;8.838;2022-08-03T14:59:14;2.03;;;1.57;;
32292;SDS011;43233;48.608;8.838;2022-08-03T15:01:40;6.23;;;1.80;;
32292;SDS011;43233;48.608;8.838;2022-08-03T15:04:05;1.20;;;1.10;;
32292;SDS011;43233;48.608;8.838;2022-08-03T15:06:31;1.80;;;1.70;;
32292;SDS011;43233;48.608;8.838;2022-08-03T15:08:57;9.40;;;2.10;;
32292;SDS011;43233;48.608;8.838;2022-08-03T15:11:22;2.03;;;1.67;;
32292;SDS011;43233;48.608;8.838;2022-08-03T15:13:48;2.03;;;1.40;;
32292;SDS011;43233;48.608;8.838;2022-08-03T15:16:14;2.23;;;1.40;;
32292;SDS011;43233;48.608;8.838;2022-08-03T15:18:40;3.43;;;1.67;;
32292;SDS011;43233;48.608;8.838;2022-08-03T15:21:05;2.37;;;1.47;;
32292;SDS011;43233;48.608;8.838;2022-08-03T15:23:31;1.63;;;1.30;;
32292;SDS011;43233;48.608;8.838;2022-08-03T15:25:57;3.37;;;1.43;;
32292;SDS011;43233;48.608;8.838;2022-08-03T15:28:22;1.23;;;1.23;;
32292;SDS011;43233;48.608;8.838;2022-08-03T15:30:50;2.67;;;1.60;;
32292;SDS011;43233;48.608;8.838;2022-08-03T15:33:16;1.47;;;1.37;;
32292;SDS011;43233;48.608;8.838;2022-08-03T15:35:42;2.20;;;1.20;;
32292;SDS011;43233;48.608;8.838;2022-08-03T15:38:08;2.47;;;1.60;;